createdAt,value
2023-01-08T00:01:32.648Z,21.90
2023-01-08T00:05:47.278Z,25.13
2023-01-08T00:07:51.713Z,19.58
2023-01-08T00:09:54.975Z,25.67
2023-01-08T00:11:56.421Z,19.70
2023-01-08T00:14:00.863Z,19.17
2023-01-08T00:16:03.284Z,18.52
2023-01-08T00:18:10.659Z,22.73
2023-01-08T00:20:14.936Z,27.13
2023-01-08T00:22:16.435Z,18.25
2023-01-08T00:24:23.950Z,20.15
2023-01-08T00:26:25.457Z,23.23
2023-01-08T00:28:26.885Z,15.20
2023-01-08T00:30:28.364Z,18.50
2023-01-08T00:32:29.839Z,20.95
2023-01-08T00:34:36.943Z,16.67
2023-01-08T00:36:41.102Z,24.15
2023-01-08T00:38:45.976Z,18.15
2023-01-08T00:40:53.547Z,18.98
2023-01-08T00:44:59.099Z,18.58
2023-01-08T00:47:03.480Z,24.77
2023-01-08T00:49:05.066Z,12.55
2023-01-08T00:51:09.693Z,19.88
2023-01-08T00:53:14.057Z,18.77
2023-01-08T00:55:18.564Z,9.90
2023-01-08T00:57:23.069Z,22.42
2023-01-08T00:59:27.560Z,18.00
2023-01-08T01:01:35.016Z,20.73
2023-01-08T01:03:36.633Z,13.63
2023-01-08T01:07:42.662Z,14.27
2023-01-08T01:09:44.112Z,15.15
2023-01-08T01:11:48.652Z,17.27
2023-01-08T01:13:50.536Z,12.57
2023-01-08T01:15:59.105Z,7.82
2023-01-08T01:18:03.509Z,11.27
2023-01-08T01:20:12.863Z,12.57
2023-01-08T01:22:14.440Z,13.18
2023-01-08T01:24:18.878Z,17.70
2023-01-08T01:26:23.623Z,13.95
2023-01-08T01:28:25.232Z,15.57
2023-01-08T01:30:26.766Z,14.70
2023-01-08T01:32:31.109Z,13.43
2023-01-08T01:34:32.724Z,19.65
2023-01-08T01:36:37.615Z,15.60
2023-01-08T01:38:48.853Z,14.57
2023-01-08T01:40:53.231Z,15.65
2023-01-08T01:42:57.724Z,11.40
2023-01-08T01:45:13.386Z,12.07
2023-01-08T01:47:25.945Z,9.25
2023-01-08T01:49:30.318Z,8.52
2023-01-08T01:51:33.715Z,13.90
2023-01-08T01:53:35.609Z,22.45
2023-01-08T01:55:39.001Z,14.25
2023-01-08T01:57:49.137Z,12.38
2023-01-08T01:59:50.645Z,11.80
2023-01-08T02:01:52.849Z,11.80
2023-01-08T02:03:57.727Z,9.55
2023-01-08T02:06:04.719Z,10.23
2023-01-08T02:10:10.955Z,23.90
2023-01-08T02:12:25.191Z,23.15
2023-01-08T02:14:30.789Z,15.02
2023-01-08T02:16:49.742Z,12.90
2023-01-08T02:18:58.255Z,17.13
2023-01-08T02:21:10.416Z,23.02
2023-01-08T02:23:36.543Z,8.82
2023-01-08T02:25:53.929Z,5.45
2023-01-08T02:27:57.128Z,6.07
2023-01-08T02:29:58.644Z,6.18
2023-01-08T02:32:00.292Z,2.65
2023-01-08T02:36:23.054Z,5.68
2023-01-08T02:38:27.556Z,3.83
2023-01-08T02:40:42.153Z,3.50
2023-01-08T02:42:46.436Z,6.22
2023-01-08T02:44:55.735Z,5.53
2023-01-08T02:46:58.104Z,4.07
2023-01-08T02:49:05.703Z,4.25
2023-01-08T02:51:26.665Z,3.72
2023-01-08T02:53:32.646Z,5.85
2023-01-08T02:55:35.695Z,5.20
2023-01-08T02:57:37.635Z,4.05
2023-01-08T02:59:46.335Z,3.70
2023-01-08T03:01:48.415Z,4.28
2023-01-08T03:03:52.496Z,1.55
2023-01-08T03:06:05.905Z,1.80
2023-01-08T03:08:13.365Z,4.03
2023-01-08T03:10:15.108Z,3.13
2023-01-08T03:12:35.367Z,1.42
2023-01-08T03:14:43.955Z,4.32
2023-01-08T03:16:48.083Z,7.53
2023-01-08T03:20:51.215Z,5.22
2023-01-08T03:22:57.164Z,4.05
2023-01-08T03:25:05.699Z,2.83
2023-01-08T03:27:09.583Z,2.33
2023-01-08T03:29:18.809Z,6.15
2023-01-08T03:31:22.221Z,5.05
2023-01-08T03:33:30.605Z,4.00
2023-01-08T03:35:36.730Z,3.38
2023-01-08T03:37:41.860Z,4.53
2023-01-08T03:39:55.846Z,6.22
2023-01-08T03:42:06.096Z,4.88
2023-01-08T03:44:13.820Z,5.60
2023-01-08T03:46:25.624Z,13.63
2023-01-08T03:48:34.097Z,5.80
2023-01-08T03:50:38.351Z,5.10
2023-01-08T03:52:39.863Z,8.05
2023-01-08T03:54:47.188Z,5.38
2023-01-08T03:56:48.757Z,3.08
2023-01-08T03:58:50.236Z,4.20
2023-01-08T04:00:51.776Z,7.20
2023-01-08T04:02:53.230Z,5.28
2023-01-08T04:04:57.423Z,4.30
2023-01-08T04:07:04.759Z,5.93
2023-01-08T04:09:06.332Z,4.90
2023-01-08T04:11:07.809Z,3.15
2023-01-08T04:13:09.340Z,3.35
2023-01-08T04:15:11.074Z,3.35
2023-01-08T04:17:15.829Z,3.72
2023-01-08T04:19:17.371Z,1.42
2023-01-08T04:21:19.033Z,3.10
2023-01-08T04:23:23.377Z,1.23
2023-01-08T04:25:27.617Z,5.60
2023-01-08T04:27:32.107Z,5.22
2023-01-08T04:29:36.463Z,2.80
2023-01-08T04:31:38.078Z,7.15
2023-01-08T04:33:39.719Z,7.97
2023-01-08T04:35:41.190Z,3.45
2023-01-08T04:37:45.355Z,5.82
2023-01-08T04:39:52.862Z,4.97
2023-01-08T04:41:57.297Z,2.38
2023-01-08T04:43:58.798Z,5.57
2023-01-08T04:46:09.268Z,2.63
2023-01-08T04:48:10.900Z,3.08
2023-01-08T04:50:12.404Z,4.60
2023-01-08T04:52:16.908Z,3.75
2023-01-08T04:54:24.448Z,2.22
2023-01-08T04:56:31.701Z,3.15
2023-01-08T04:58:36.621Z,3.67
2023-01-08T05:00:38.950Z,2.95
2023-01-08T05:02:40.668Z,2.35
2023-01-08T05:04:45.054Z,3.30
2023-01-08T05:06:52.386Z,2.55
2023-01-08T05:08:57.127Z,2.13
2023-01-08T05:10:59.155Z,2.13
2023-01-08T05:13:06.518Z,0.95
2023-01-08T05:15:11.114Z,0.70
2023-01-08T05:17:12.671Z,2.13
2023-01-08T05:19:14.208Z,0.68
2023-01-08T05:21:18.660Z,2.38
2023-01-08T05:25:36.734Z,0.93
2023-01-08T05:27:50.527Z,1.75
2023-01-08T05:30:03.772Z,1.13
2023-01-08T05:32:20.886Z,1.13
2023-01-08T05:34:30.779Z,4.30
2023-01-08T05:36:44.892Z,1.10
2023-01-08T05:38:53.822Z,2.15
2023-01-08T05:41:03.104Z,3.38
2023-01-08T05:43:21.861Z,1.92
2023-01-08T05:45:39.592Z,2.10
2023-01-08T05:47:49.973Z,2.90
2023-01-08T05:50:08.467Z,5.07
2023-01-08T05:52:25.376Z,1.65
2023-01-08T05:54:29.299Z,1.30
2023-01-08T05:56:36.960Z,4.22
2023-01-08T05:58:38.820Z,3.13
2023-01-08T06:00:40.386Z,2.38
2023-01-08T06:02:48.130Z,2.17
2023-01-08T06:04:52.479Z,2.15
2023-01-08T06:06:54.038Z,1.98
2023-01-08T06:08:55.600Z,2.75
2023-01-08T06:11:04.259Z,1.60
2023-01-08T06:13:08.980Z,1.70
2023-01-08T06:15:10.783Z,3.30
2023-01-08T06:17:18.398Z,1.23
2023-01-08T06:19:22.903Z,0.28
2023-01-08T06:21:27.365Z,0.68
2023-01-08T06:23:34.788Z,0.30
2023-01-08T06:25:42.181Z,0.68
2023-01-08T06:27:43.738Z,0.63
2023-01-08T06:29:48.356Z,0.10
2023-01-08T06:31:56.266Z,0.25
2023-01-08T06:34:00.748Z,0.32
2023-01-08T06:36:04.487Z,0.20
2023-01-08T06:38:06.138Z,0.40
2023-01-08T06:40:07.885Z,0.10
2023-01-08T06:42:12.495Z,0.25
2023-01-08T06:44:13.992Z,0.43
2023-01-08T06:46:21.538Z,0.10
2023-01-08T06:48:29.136Z,0.32
2023-01-08T06:50:30.905Z,0.38
2023-01-08T06:52:38.556Z,0.20
2023-01-08T06:54:42.786Z,0.10
2023-01-08T06:56:53.321Z,0.57
2023-01-08T06:59:01.532Z,0.43
2023-01-08T07:01:03.201Z,0.40
2023-01-08T07:03:05.166Z,1.10
2023-01-08T07:05:06.891Z,0.45
2023-01-08T07:07:14.938Z,0.10
2023-01-08T07:09:19.404Z,1.35
2023-01-08T07:11:27.014Z,0.22
2023-01-08T07:15:38.682Z,0.88
2023-01-08T07:17:40.348Z,1.88
2023-01-08T07:19:43.527Z,0.40
2023-01-08T07:21:45.061Z,2.78
2023-01-08T07:23:52.693Z,1.42
2023-01-08T07:25:54.178Z,5.57
2023-01-08T07:27:59.537Z,7.25
2023-01-08T07:30:03.986Z,14.13
2023-01-08T07:32:05.639Z,8.85
2023-01-08T07:34:10.183Z,13.52
2023-01-08T07:36:11.694Z,10.65
2023-01-08T07:38:15.990Z,16.65
2023-01-08T07:40:17.616Z,17.85
2023-01-08T07:42:19.606Z,15.35
2023-01-08T07:44:23.793Z,19.85
2023-01-08T07:46:25.341Z,11.20
2023-01-08T07:48:29.905Z,25.77
2023-01-08T07:52:35.664Z,13.32
2023-01-08T07:54:43.247Z,9.68
2023-01-08T07:56:44.720Z,12.25
2023-01-08T07:58:52.303Z,15.20
2023-01-08T08:00:59.090Z,23.98
2023-01-08T08:03:08.133Z,13.80
2023-01-08T08:05:12.681Z,14.80
2023-01-08T08:07:14.302Z,14.93
2023-01-08T08:09:16.005Z,10.38
2023-01-08T08:11:17.776Z,10.05
2023-01-08T08:13:25.364Z,6.97
2023-01-08T08:15:26.958Z,3.67
2023-01-08T08:17:34.850Z,9.68
2023-01-08T08:19:44.179Z,5.75
2023-01-08T08:21:48.594Z,2.95
2023-01-08T08:23:56.979Z,7.15
2023-01-08T08:26:11.371Z,10.02
2023-01-08T08:28:21.793Z,5.95
2023-01-08T08:30:26.319Z,4.82
2023-01-08T08:32:33.164Z,14.82
2023-01-08T08:34:37.516Z,6.57
2023-01-08T08:36:47.161Z,8.07
2023-01-08T08:38:49.351Z,11.20
2023-01-08T08:40:59.010Z,9.68
2023-01-08T08:43:04.544Z,6.32
2023-01-08T08:45:09.450Z,8.32
2023-01-08T08:47:16.386Z,9.57
2023-01-08T08:49:20.731Z,12.43
2023-01-08T08:51:24.644Z,6.60
2023-01-08T08:53:32.602Z,5.40
2023-01-08T08:55:38.819Z,3.55
2023-01-08T08:57:42.455Z,5.15
2023-01-08T08:59:45.646Z,7.45
2023-01-08T09:01:50.044Z,5.73
2023-01-08T09:03:54.742Z,7.75
2023-01-08T09:05:58.459Z,4.78
2023-01-08T09:08:04.472Z,10.15
2023-01-08T09:10:11.963Z,9.27
2023-01-08T09:12:13.507Z,19.15
2023-01-08T09:14:21.240Z,17.17
2023-01-08T09:16:25.853Z,17.38
2023-01-08T09:18:30.452Z,13.75
2023-01-08T09:20:31.990Z,10.75
2023-01-08T09:22:33.580Z,11.45
2023-01-08T09:24:41.179Z,12.43
2023-01-08T09:26:48.651Z,14.60
2023-01-08T09:30:54.323Z,20.85
2023-01-08T09:33:02.301Z,20.00
2023-01-08T09:35:10.187Z,11.75
2023-01-08T09:37:11.735Z,17.33
2023-01-08T09:39:19.207Z,21.13
2023-01-08T09:41:28.679Z,25.80
2023-01-08T09:43:35.123Z,27.20
2023-01-08T09:45:43.838Z,24.95
2023-01-08T09:47:45.453Z,15.57
2023-01-08T09:49:47.986Z,11.65
2023-01-08T09:51:49.720Z,17.42
2023-01-08T09:53:55.271Z,18.73
2023-01-08T09:56:10.740Z,16.50
2023-01-08T09:58:36.770Z,18.67
2023-01-08T10:00:41.357Z,15.77
2023-01-08T10:02:43.928Z,17.60
2023-01-08T10:04:58.624Z,7.63
2023-01-08T10:07:11.556Z,10.93
2023-01-08T10:09:15.812Z,8.82
2023-01-08T10:11:18.129Z,7.05
2023-01-08T10:13:19.811Z,5.82
2023-01-08T10:15:21.952Z,6.07
2023-01-08T10:17:40.078Z,14.40
2023-01-08T10:19:47.479Z,8.05
2023-01-08T10:21:52.051Z,3.75
2023-01-08T10:23:53.745Z,9.95
2023-01-08T10:25:59.644Z,6.78
2023-01-08T10:28:02.412Z,9.90
2023-01-08T10:30:17.336Z,10.80
2023-01-08T10:32:23.246Z,13.02
2023-01-08T10:34:31.523Z,12.75
2023-01-08T10:36:39.374Z,12.45
2023-01-08T10:38:49.989Z,6.72
2023-01-08T10:40:52.209Z,5.00
2023-01-08T10:43:06.516Z,9.27
2023-01-08T10:45:27.922Z,8.35
2023-01-08T10:47:36.230Z,5.15
2023-01-08T10:49:42.524Z,12.10
2023-01-08T10:51:51.072Z,11.45
2023-01-08T10:53:53.800Z,11.38
2023-01-08T10:56:02.709Z,4.93
2023-01-08T10:58:10.009Z,5.32
2023-01-08T11:02:36.547Z,7.93
2023-01-08T11:05:15.952Z,12.90
2023-01-08T11:07:35.387Z,8.52
2023-01-08T11:10:04.953Z,5.68
2023-01-08T11:12:31.309Z,5.05
2023-01-08T11:14:35.373Z,4.88
2023-01-08T11:16:38.096Z,6.00
2023-01-08T11:18:51.816Z,10.80
2023-01-08T11:20:56.758Z,18.73
2023-01-08T11:23:15.219Z,7.03
2023-01-08T11:25:23.225Z,7.53
2023-01-08T11:27:32.045Z,11.57
2023-01-08T11:29:52.461Z,7.68
2023-01-08T11:32:03.484Z,15.88
2023-01-08T11:34:34.729Z,11.45
2023-01-08T11:36:58.068Z,14.43
2023-01-08T11:39:22.768Z,14.70
2023-01-08T11:41:33.960Z,12.00
2023-01-08T11:46:48.875Z,19.70
2023-01-08T11:48:56.676Z,19.35
2023-01-08T11:51:16.481Z,19.98
2023-01-08T11:53:32.349Z,13.15
2023-01-08T11:55:43.157Z,21.33
2023-01-08T11:57:53.501Z,19.85
2023-01-08T11:59:55.429Z,17.88
2023-01-08T12:02:21.688Z,19.25
2023-01-08T12:04:58.731Z,25.58
2023-01-08T12:07:26.996Z,26.88
2023-01-08T12:09:41.014Z,33.55
2023-01-08T12:11:55.129Z,26.92
2023-01-08T12:14:22.580Z,20.50
2023-01-08T12:16:33.350Z,19.77
2023-01-08T12:18:53.887Z,19.05
2023-01-08T12:21:06.496Z,21.17
2023-01-08T12:23:26.823Z,20.58
2023-01-08T12:25:34.208Z,14.57
2023-01-08T12:28:00.444Z,28.92
2023-01-08T12:30:02.243Z,24.50
2023-01-08T12:32:10.443Z,38.50
2023-01-08T12:34:37.134Z,23.60
2023-01-08T12:36:44.398Z,15.52
2023-01-08T12:38:53.695Z,20.88
2023-01-08T12:40:57.339Z,16.77
2023-01-08T12:43:01.428Z,9.93
2023-01-08T12:45:32.846Z,12.88
2023-01-08T12:47:40.758Z,12.85
2023-01-08T12:49:44.986Z,11.68
2023-01-08T12:51:52.728Z,7.72
2023-01-08T12:53:58.657Z,14.57
2023-01-08T12:56:09.423Z,11.18
2023-01-08T12:58:23.689Z,13.30
2023-01-08T13:00:40.024Z,9.95
2023-01-08T13:02:49.557Z,14.95
2023-01-08T13:04:57.430Z,16.88
2023-01-08T13:07:02.029Z,15.95
2023-01-08T13:09:20.081Z,11.45
2023-01-08T13:11:29.890Z,14.63
2023-01-08T13:13:32.858Z,15.68
2023-01-08T13:15:35.334Z,16.13
2023-01-08T13:17:39.866Z,14.88
2023-01-08T13:19:45.649Z,11.20
2023-01-08T13:21:51.728Z,11.60
2023-01-08T13:23:59.993Z,12.95
2023-01-08T13:26:05.526Z,16.67
2023-01-08T13:28:27.728Z,10.95
2023-01-08T13:30:49.058Z,13.07
2023-01-08T13:32:56.291Z,7.13
2023-01-08T13:35:03.689Z,6.57
2023-01-08T13:37:07.816Z,8.98
2023-01-08T13:39:11.138Z,14.68
2023-01-08T13:41:32.720Z,7.43
2023-01-08T13:43:40.396Z,7.43
2023-01-08T13:46:09.292Z,4.72
2023-01-08T13:48:21.334Z,4.88
2023-01-08T13:50:30.569Z,9.82
2023-01-08T13:52:32.164Z,7.30
2023-01-08T13:54:36.710Z,3.38
2023-01-08T13:56:45.368Z,5.30
2023-01-08T13:58:53.565Z,9.50
2023-01-08T14:00:58.372Z,6.30
2023-01-08T14:03:05.769Z,6.78
2023-01-08T14:05:14.966Z,5.95
2023-01-08T14:07:16.520Z,4.07
2023-01-08T14:09:23.071Z,3.35
2023-01-08T14:11:32.135Z,3.28
2023-01-08T14:13:40.061Z,4.70
2023-01-08T14:15:41.887Z,3.03
2023-01-08T14:17:50.134Z,5.20
2023-01-08T14:19:58.029Z,4.53
2023-01-08T14:22:47.815Z,4.82
2023-01-08T14:34:22.847Z,4.68
2023-01-08T14:36:47.293Z,5.55
2023-01-08T14:38:52.504Z,5.88
2023-01-08T14:41:11.772Z,5.70
2023-01-08T14:43:43.029Z,3.50
2023-01-08T14:45:55.279Z,6.75
2023-01-08T14:48:34.411Z,2.83
2023-01-08T14:50:42.382Z,1.33
2023-01-08T14:52:45.862Z,4.70
2023-01-08T14:54:58.073Z,4.22
2023-01-08T14:57:06.809Z,6.07
2023-01-08T14:59:12.461Z,3.93
2023-01-08T15:01:24.596Z,3.42
2023-01-08T15:05:53.075Z,8.25
2023-01-08T15:08:05.144Z,4.30
2023-01-08T15:10:32.339Z,4.32
2023-01-08T15:12:36.465Z,7.45
2023-01-08T15:14:44.504Z,3.50
2023-01-08T15:16:46.221Z,3.50
2023-01-08T15:18:48.831Z,4.47
2023-01-08T15:20:50.935Z,3.38
2023-01-08T15:22:56.807Z,2.42
2023-01-08T15:24:59.938Z,2.50
2023-01-08T15:27:10.348Z,3.42
2023-01-08T15:29:33.294Z,2.55
2023-01-08T15:31:40.559Z,0.60
2023-01-08T15:33:48.124Z,2.63
2023-01-08T15:35:58.235Z,1.52
2023-01-08T15:40:01.606Z,1.17
2023-01-08T15:42:32.090Z,3.65
2023-01-08T15:44:39.338Z,2.35
2023-01-08T15:46:42.078Z,0.52
2023-01-08T15:48:47.533Z,2.65
2023-01-08T15:50:58.176Z,1.38
2023-01-08T15:53:01.215Z,1.00
2023-01-08T15:55:15.730Z,0.52
2023-01-08T15:57:21.177Z,1.45
2023-01-08T15:59:22.859Z,5.25
2023-01-08T16:01:31.130Z,1.45
2023-01-08T16:03:38.529Z,0.65
2023-01-08T16:05:40.114Z,1.05
2023-01-08T16:07:47.634Z,0.55
2023-01-08T16:09:52.096Z,1.17
2023-01-08T16:11:54.036Z,2.47
2023-01-08T16:13:55.593Z,0.32
2023-01-08T16:16:08.285Z,1.65
2023-01-08T16:18:15.552Z,0.77
2023-01-08T16:20:23.114Z,0.40
2023-01-08T16:22:30.559Z,2.55
2023-01-08T16:24:32.458Z,2.53
2023-01-08T16:26:37.067Z,1.55
2023-01-08T16:28:44.582Z,1.27
2023-01-08T16:30:46.097Z,2.28
2023-01-08T16:32:52.394Z,1.98
2023-01-08T16:34:55.069Z,2.53
2023-01-08T16:36:56.894Z,0.82
2023-01-08T16:39:04.502Z,3.20
2023-01-08T16:41:06.421Z,0.80
2023-01-08T16:43:13.697Z,0.60
2023-01-08T16:45:15.242Z,1.15
2023-01-08T16:47:16.845Z,2.08
2023-01-08T16:49:24.498Z,2.08
2023-01-08T16:51:31.959Z,1.38
2023-01-08T16:53:39.724Z,1.75
2023-01-08T16:55:41.359Z,3.88
2023-01-08T16:57:42.871Z,3.60
2023-01-08T16:59:44.382Z,1.85
2023-01-08T17:01:52.329Z,2.45
2023-01-08T17:04:00.666Z,2.67
2023-01-08T17:06:09.658Z,0.57
2023-01-08T17:08:19.739Z,2.33
2023-01-08T17:10:25.819Z,0.77
2023-01-08T17:12:30.658Z,3.13
2023-01-08T17:14:36.676Z,1.13
2023-01-08T17:16:45.644Z,0.40
2023-01-08T17:18:47.291Z,0.25
2023-01-08T17:20:55.228Z,0.85
2023-01-08T17:23:01.476Z,1.45
2023-01-08T17:25:11.997Z,0.40
2023-01-08T17:27:20.013Z,0.68
2023-01-08T17:29:21.967Z,1.50
2023-01-08T17:31:23.714Z,0.20
2023-01-08T17:33:31.918Z,0.75
2023-01-08T17:35:33.584Z,1.58
2023-01-08T17:37:35.349Z,1.00
2023-01-08T17:39:36.905Z,0.45
2023-01-08T17:42:02.887Z,1.05
2023-01-08T17:44:06.885Z,0.40
2023-01-08T17:46:11.675Z,2.47
2023-01-08T17:48:22.324Z,2.50
2023-01-08T17:50:38.163Z,1.35
2023-01-08T17:52:47.512Z,2.05
2023-01-08T17:54:55.667Z,0.38
2023-01-08T17:56:58.856Z,0.38
2023-01-08T17:59:02.673Z,1.70
2023-01-08T18:01:09.261Z,0.70
2023-01-08T18:03:12.984Z,1.75
2023-01-08T18:05:16.469Z,0.73
2023-01-08T18:07:25.833Z,0.52
2023-01-08T18:09:31.057Z,0.63
2023-01-08T18:11:41.454Z,1.75
2023-01-08T18:13:45.705Z,1.13
2023-01-08T18:15:48.575Z,1.35
2023-01-08T18:17:51.303Z,0.50
2023-01-08T18:19:54.987Z,0.50
2023-01-08T18:21:58.426Z,1.13
2023-01-08T18:24:02.367Z,0.70
2023-01-08T18:26:12.045Z,0.40
2023-01-08T18:28:14.549Z,0.40
2023-01-08T18:30:16.243Z,1.85
2023-01-08T18:32:22.310Z,0.45
2023-01-08T18:34:23.891Z,0.30
2023-01-08T18:36:31.351Z,0.20
2023-01-08T18:38:33.483Z,0.43
2023-01-08T18:40:35.175Z,0.70
2023-01-08T18:42:36.735Z,0.85
2023-01-08T18:44:44.222Z,0.40
2023-01-08T18:46:51.880Z,0.40
2023-01-08T18:48:59.505Z,0.90
2023-01-08T18:51:05.827Z,1.05
2023-01-08T18:53:13.001Z,0.57
2023-01-08T18:55:17.233Z,1.60
2023-01-08T18:57:18.879Z,0.93
2023-01-08T18:59:26.343Z,1.92
2023-01-08T19:01:28.235Z,1.30
2023-01-08T19:03:35.656Z,0.68
2023-01-08T19:07:42.367Z,1.25
2023-01-08T19:09:44.052Z,3.05
2023-01-08T19:11:46.362Z,1.33
2023-01-08T19:13:55.357Z,1.23
2023-01-08T19:15:58.896Z,0.63
2023-01-08T19:18:00.522Z,3.38
2023-01-08T19:20:02.149Z,2.58
2023-01-08T19:22:07.265Z,3.08
2023-01-08T19:24:09.024Z,1.38
2023-01-08T19:26:10.762Z,4.18
2023-01-08T19:28:15.253Z,4.68
2023-01-08T19:30:18.017Z,3.90
2023-01-08T19:32:22.400Z,3.63
2023-01-08T19:34:24.151Z,4.65
2023-01-08T19:36:31.964Z,8.60
2023-01-08T19:38:33.556Z,8.93
2023-01-08T19:42:57.843Z,13.07
2023-01-08T19:44:59.347Z,11.45
2023-01-08T19:47:00.880Z,6.32
2023-01-08T19:49:08.257Z,5.88
2023-01-08T19:51:10.507Z,6.22
2023-01-08T19:53:13.966Z,17.27
2023-01-08T19:55:22.473Z,16.35
2023-01-08T19:57:27.200Z,15.93
2023-01-08T19:59:34.456Z,14.50
2023-01-08T20:01:36.892Z,15.27
2023-01-08T20:03:41.664Z,11.25
2023-01-08T20:05:43.217Z,12.63
2023-01-08T20:07:47.877Z,19.25
2023-01-08T20:09:55.541Z,14.23
2023-01-08T20:12:00.033Z,18.38
2023-01-08T20:16:14.282Z,14.10
2023-01-08T20:18:15.876Z,7.43
2023-01-08T20:20:17.540Z,17.00
2023-01-08T20:22:22.256Z,7.85
2023-01-08T20:24:24.037Z,7.50
2023-01-08T20:26:26.656Z,10.18
2023-01-08T20:28:28.436Z,8.68
2023-01-08T20:30:35.928Z,8.55
2023-01-08T20:32:40.753Z,4.35
2023-01-08T20:34:42.287Z,6.93
2023-01-08T20:38:52.197Z,7.30
2023-01-08T20:40:53.800Z,11.52
2023-01-08T20:42:55.285Z,7.85
2023-01-08T20:44:57.426Z,5.53
2023-01-08T20:46:59.335Z,6.38
2023-01-08T20:49:04.885Z,7.65
2023-01-08T20:51:06.596Z,6.22
2023-01-08T20:53:15.607Z,7.22
2023-01-08T20:55:23.408Z,8.25
2023-01-08T20:57:39.305Z,6.88
2023-01-08T20:59:44.324Z,5.45
2023-01-08T21:01:54.260Z,4.78
2023-01-08T21:04:02.505Z,4.03
2023-01-08T21:06:15.609Z,5.70
2023-01-08T21:08:25.634Z,10.52
2023-01-08T21:10:36.145Z,5.53
2023-01-08T21:12:40.048Z,8.07
2023-01-08T21:14:43.949Z,2.92
2023-01-08T21:16:52.176Z,4.43
2023-01-08T21:18:56.032Z,5.03
2023-01-08T21:21:00.910Z,6.40
2023-01-08T21:23:10.706Z,4.10
2023-01-08T21:25:16.716Z,2.67
2023-01-08T21:27:20.642Z,1.85
2023-01-08T21:29:24.358Z,2.75
2023-01-08T21:31:34.356Z,1.27
2023-01-08T21:33:43.529Z,2.00
2023-01-08T21:35:45.160Z,1.42
2023-01-08T21:37:52.723Z,4.97
2023-01-08T21:39:54.404Z,3.40
2023-01-08T21:42:14.971Z,4.70
2023-01-08T21:44:36.275Z,1.95
2023-01-08T21:46:44.192Z,1.73
2023-01-08T21:49:06.236Z,5.50
2023-01-08T21:51:27.964Z,3.25
2023-01-08T21:53:36.569Z,4.45
2023-01-08T21:55:38.215Z,7.22
2023-01-08T21:57:39.851Z,3.67
2023-01-08T21:59:50.171Z,9.73
2023-01-08T22:02:03.852Z,7.47
2023-01-08T22:04:15.153Z,6.70
2023-01-08T22:06:16.998Z,3.63
2023-01-08T22:08:21.803Z,8.25
2023-01-08T22:10:29.318Z,9.25
2023-01-08T22:12:37.025Z,5.90
2023-01-08T22:14:38.572Z,5.68
2023-01-08T22:16:40.560Z,4.63
2023-01-08T22:18:42.133Z,6.85
2023-01-08T22:20:49.475Z,5.22
2023-01-08T22:22:52.898Z,3.10
2023-01-08T22:25:00.433Z,2.40
2023-01-08T22:27:05.277Z,2.42
2023-01-08T22:29:14.208Z,5.65
2023-01-08T22:31:23.261Z,2.42
2023-01-08T22:33:42.459Z,1.63
2023-01-08T22:35:44.351Z,3.55
2023-01-08T22:37:51.968Z,1.15
2023-01-08T22:39:53.564Z,6.03
2023-01-08T22:41:55.310Z,1.63
2023-01-08T22:43:57.059Z,1.25
2023-01-08T22:45:59.732Z,1.40
2023-01-08T22:48:05.013Z,2.10
2023-01-08T22:50:06.703Z,7.10
2023-01-08T22:52:11.638Z,1.75
2023-01-08T22:54:21.503Z,1.02
2023-01-08T22:56:24.097Z,1.50
2023-01-08T22:58:31.813Z,1.27
2023-01-08T23:00:33.511Z,2.30
2023-01-08T23:02:35.636Z,2.28
2023-01-08T23:04:43.240Z,0.95
2023-01-08T23:06:50.765Z,1.08
2023-01-08T23:08:52.997Z,2.45
2023-01-08T23:11:03.929Z,4.70
2023-01-08T23:13:13.035Z,1.67
2023-01-08T23:15:23.660Z,2.80
2023-01-08T23:17:33.586Z,7.95
2023-01-08T23:19:42.818Z,3.22
2023-01-08T23:21:44.439Z,7.07
2023-01-08T23:23:49.433Z,5.40
2023-01-08T23:25:58.195Z,2.85
2023-01-08T23:28:02.763Z,8.93
2023-01-08T23:30:04.868Z,5.28
2023-01-08T23:32:12.265Z,3.35
2023-01-08T23:34:19.743Z,3.28
2023-01-08T23:36:27.302Z,7.68
2023-01-08T23:38:28.920Z,6.05
2023-01-08T23:40:36.408Z,2.10
2023-01-08T23:42:44.117Z,2.92
2023-01-08T23:44:51.608Z,0.65
2023-01-08T23:46:58.980Z,2.47
2023-01-08T23:49:00.649Z,4.95
2023-01-08T23:51:02.314Z,2.90
2023-01-08T23:53:09.850Z,1.42
2023-01-08T23:55:17.419Z,5.80
2023-01-08T23:57:19.123Z,6.22
2023-01-08T23:59:28.176Z,7.95
